Time;durP1;ratioP1;P1;durP2;ratioP2;P2;SDS_P1;SDS_P2;PMS_P1;PMS_P2;Temp;Humidity;BMP_temperature;BMP_pressure;BME280_temperature;BME280_humidity;BME280_pressure;Samples;Min_cycle;Max_cycle;Signal;HPM_P1;HPM_P2
2023/05/11 00:00:28;;;;;;;;;;;;;;;11.67;41.95;100353.34;4988356;28;19925;-74
2023/05/11 00:02:56;;;;;;;;;;;;;;;11.70;41.96;100347.31;4986011;28;19932;-74
2023/05/11 00:05:22;;;;;;;;;;;;;;;11.71;42.09;100342.69;4985493;28;19926;-74
2023/05/11 00:07:47;;;;;;;;;;;;;;;11.69;42.09;100345.69;4988552;28;19972;-74
2023/05/11 00:10:13;;;;;;;;;;;;;;;11.70;42.23;100344.59;4984587;28;19932;-73
2023/05/11 00:12:41;;;;;;;;;;;;;;;11.69;42.21;100339.41;4989479;28;19929;-73
2023/05/11 00:15:13;;;;;;;;;;;;;;;11.70;42.18;100341.84;4985626;28;19926;-75
2023/05/11 00:17:39;;;;;;;;;;;;;;;11.71;42.03;100337.19;4987349;28;19926;-75
2023/05/11 00:20:10;;;;;;;;;;;;;;;11.72;42.03;100342.44;4985905;28;19989;-75
2023/05/11 00:22:36;;;;;;;;;;;;;;;11.72;42.25;100344.31;4982553;28;19926;-75
2023/05/11 00:25:02;;;;;;;;;;;;;;;11.70;42.35;100341.03;4983600;28;20414;-74
2023/05/11 00:27:28;;;;;;;;;;;;;;;11.66;42.38;100348.97;4980631;28;19972;-74
2023/05/11 00:29:54;;;;;;;;;;;;;;;11.63;42.63;100341.28;4968695;28;19966;-75
2023/05/11 00:32:20;;;;;;;;;;;;;;;11.61;42.67;100340.75;4985664;28;20300;-75
2023/05/11 00:34:52;;;;;;;;;;;;;;;11.58;42.81;100342.09;4986701;28;20024;-75
2023/05/11 00:37:19;;;;;;;;;;;;;;;11.56;43.14;100349.75;4966792;28;19930;-75
2023/05/11 00:39:45;;;;;;;;;;;;;;;11.57;43.06;100345.13;4984852;28;20024;-75
2023/05/11 00:42:11;;;;;;;;;;;;;;;11.57;43.41;100345.91;4983348;28;20336;-74
2023/05/11 00:44:37;;;;;;;;;;;;;;;11.59;43.67;100349.22;4987593;28;19926;-74
2023/05/11 00:47:03;;;;;;;;;;;;;;;11.60;43.86;100350.03;5002033;28;19925;-74
2023/05/11 00:49:32;;;;;;;;;;;;;;;11.57;43.93;100345.13;4986181;28;20378;-74
2023/05/11 00:52:01;;;;;;;;;;;;;;;11.52;44.63;100350.53;4989691;28;19980;-74
2023/05/11 00:54:29;;;;;;;;;;;;;;;11.46;44.99;100356.00;4983600;28;19972;-74
2023/05/11 00:56:55;;;;;;;;;;;;;;;11.40;45.57;100364.47;4986343;28;19925;-74
2023/05/11 00:59:20;;;;;;;;;;;;;;;11.33;45.81;100357.34;4970338;28;20312;-74
2023/05/11 01:01:47;;;;;;;;;;;;;;;11.29;46.01;100364.41;4987503;28;19925;-74
2023/05/11 01:04:13;;;;;;;;;;;;;;;11.27;45.98;100363.84;4986302;28;19965;-74
2023/05/11 01:06:45;;;;;;;;;;;;;;;11.24;46.32;100361.66;4984084;28;20331;-74
2023/05/11 01:09:17;;;;;;;;;;;;;;;11.24;46.31;100372.59;4984635;28;19926;-73
2023/05/11 01:11:48;;;;;;;;;;;;;;;11.21;46.24;100357.53;4985462;28;19926;-73
2023/05/11 01:14:17;;;;;;;;;;;;;;;11.19;46.43;100367.91;4989223;28;19972;-73
2023/05/11 01:16:48;;;;;;;;;;;;;;;11.15;46.83;100366.81;4987906;28;19930;-73
2023/05/11 01:19:22;;;;;;;;;;;;;;;11.10;46.95;100369.53;4983875;28;19925;-73
2023/05/11 01:21:49;;;;;;;;;;;;;;;11.07;47.06;100367.28;4978479;28;20021;-74
2023/05/11 01:24:29;;;;;;;;;;;;;;;11.06;47.29;100366.47;4986980;28;19933;-74
2023/05/11 01:27:13;;;;;;;;;;;;;;;11.04;47.38;100365.94;4986069;28;20443;-74
2023/05/11 01:29:42;;;;;;;;;;;;;;;11.04;47.17;100359.63;4980820;28;19932;-74
2023/05/11 01:32:14;;;;;;;;;;;;;;;11.03;47.43;100358.81;4985824;28;20380;-74
2023/05/11 01:34:41;;;;;;;;;;;;;;;11.05;47.29;100364.00;4987260;28;20024;-74
2023/05/11 01:37:09;;;;;;;;;;;;;;;11.03;47.29;100363.44;4986887;28;20008;-74
2023/05/11 01:39:38;;;;;;;;;;;;;;;11.00;47.37;100369.44;4984710;28;19968;-74
2023/05/11 01:42:06;;;;;;;;;;;;;;;11.01;47.51;100368.34;4985788;28;19973;-74
2023/05/11 01:44:34;;;;;;;;;;;;;;;11.01;47.32;100366.47;4988261;28;20432;-75
2023/05/11 01:47:01;;;;;;;;;;;;;;;11.02;47.59;100364.53;4969046;28;19965;-75
2023/05/11 01:49:31;;;;;;;;;;;;;;;11.02;47.43;100361.78;4987125;28;20447;-75
2023/05/11 01:51:58;;;;;;;;;;;;;;;11.04;47.37;100370.56;4984205;28;20317;-75
2023/05/11 01:54:24;;;;;;;;;;;;;;;11.03;47.50;100364.28;4985706;28;20308;-75
2023/05/11 01:56:51;;;;;;;;;;;;;;;11.01;47.46;100358.25;4966577;28;19945;-75
2023/05/11 01:59:17;;;;;;;;;;;;;;;11.01;47.25;100361.00;4986930;28;19952;-75
2023/05/11 02:01:44;;;;;;;;;;;;;;;11.05;47.09;100362.09;4988797;28;19925;-75
2023/05/11 02:04:10;;;;;;;;;;;;;;;11.10;46.56;100361.31;4987051;28;19932;-74
2023/05/11 02:06:39;;;;;;;;;;;;;;;11.14;46.78;100354.22;4983097;28;19925;-74
2023/05/11 02:09:06;;;;;;;;;;;;;;;11.17;46.67;100361.88;4985353;28;19925;-74
2023/05/11 02:11:34;;;;;;;;;;;;;;;11.19;46.43;100365.19;4986040;28;19925;-75
2023/05/11 02:14:00;;;;;;;;;;;;;;;11.23;46.43;100361.91;4984908;28;19932;-74
2023/05/11 02:16:28;;;;;;;;;;;;;;;11.25;46.42;100357.00;4983178;28;19932;-74
2023/05/11 02:18:54;;;;;;;;;;;;;;;11.28;46.41;100365.50;4968701;28;19925;-75
2023/05/11 02:21:42;;;;;;;;;;;;;;;11.31;46.23;100364.16;4985258;28;19932;-74
2023/05/11 02:24:08;;;;;;;;;;;;;;;11.34;46.15;100360.88;4966996;28;19926;-74
2023/05/11 02:26:35;;;;;;;;;;;;;;;11.35;46.55;100359.78;4984685;28;19926;-74
2023/05/11 02:29:01;;;;;;;;;;;;;;;11.33;46.90;100359.22;4973894;28;19932;-74
2023/05/11 02:31:29;;;;;;;;;;;;;;;11.31;46.85;100362.22;4985853;28;19936;-75
2023/05/11 02:33:58;;;;;;;;;;;;;;;11.30;46.97;100366.06;4986911;28;20021;-74
2023/05/11 02:36:26;;;;;;;;;;;;;;;11.30;47.04;100363.31;4984765;28;19926;-74
2023/05/11 02:38:57;;;;;;;;;;;;;;;11.32;47.05;100368.53;4984072;28;19926;-74
2023/05/11 02:41:26;;;;;;;;;;;;;;;11.34;47.11;100366.34;4986710;28;20055;-74
2023/05/11 02:43:55;;;;;;;;;;;;;;;11.38;46.94;100363.91;4998481;28;19926;-74
2023/05/11 02:46:25;;;;;;;;;;;;;;;11.41;46.92;100368.84;4983695;28;20024;-74
2023/05/11 02:48:53;;;;;;;;;;;;;;;11.43;46.54;100374.88;4985031;28;19933;-74
2023/05/11 02:51:23;;;;;;;;;;;;;;;11.45;46.57;100375.44;4982910;28;19935;-75
2023/05/11 02:53:52;;;;;;;;;;;;;;;11.46;46.63;100377.09;4985048;28;20443;-75
2023/05/11 02:56:20;;;;;;;;;;;;;;;11.46;46.71;100358.75;4967354;28;19937;-74
2023/05/11 02:58:47;;;;;;;;;;;;;;;11.46;46.70;100375.19;4983954;28;20388;-74
2023/05/11 03:01:23;;;;;;;;;;;;;;;11.46;46.85;100369.69;4983215;28;19930;-75
2023/05/11 03:03:49;;;;;;;;;;;;;;;11.49;46.98;100376.56;4983040;28;20332;-75
2023/05/11 03:06:15;;;;;;;;;;;;;;;11.52;46.91;100369.72;4974534;28;19933;-75
2023/05/11 03:08:41;;;;;;;;;;;;;;;11.56;46.92;100376.34;4968408;28;19926;-75
2023/05/11 03:11:08;;;;;;;;;;;;;;;11.59;46.69;100375.78;4985786;28;19947;-74
2023/05/11 03:13:36;;;;;;;;;;;;;;;11.58;46.68;100379.63;4985327;28;19964;-75
2023/05/11 03:16:04;;;;;;;;;;;;;;;11.58;46.48;100379.63;4985203;28;19980;-75
2023/05/11 03:18:32;;;;;;;;;;;;;;;11.63;46.38;100379.63;4982367;28;19925;-74
2023/05/11 03:20:59;;;;;;;;;;;;;;;11.67;46.20;100374.44;4983835;28;20042;-72
2023/05/11 03:23:25;;;;;;;;;;;;;;;11.71;45.95;100381.88;5001632;28;19961;-73
2023/05/11 03:25:52;;;;;;;;;;;;;;;11.72;45.85;100386.25;4967560;28;20018;-72
2023/05/11 03:28:19;;;;;;;;;;;;;;;11.77;45.85;100390.91;4982428;28;19936;-74
2023/05/11 03:30:56;;;;;;;;;;;;;;;11.83;45.61;100394.50;4981541;28;20024;-71
2023/05/11 03:33:22;;;;;;;;;;;;;;;11.89;45.59;100396.97;5001315;28;20392;-73
2023/05/11 03:35:49;;;;;;;;;;;;;;;11.96;45.37;100396.72;4982219;28;19972;-73
2023/05/11 03:38:20;;;;;;;;;;;;;;;12.01;45.62;100391.28;4983075;28;19932;-72
2023/05/11 03:40:46;;;;;;;;;;;;;;;12.07;45.47;100391.31;4987297;28;19925;-72
2023/05/11 03:43:15;;;;;;;;;;;;;;;12.11;45.53;100393.25;4981873;28;19979;-72
2023/05/11 03:45:41;;;;;;;;;;;;;;;12.14;45.30;100389.97;4985979;28;19926;-73
2023/05/11 03:48:10;;;;;;;;;;;;;;;12.22;45.27;100399.56;4965445;28;19930;-73
2023/05/11 03:50:37;;;;;;;;;;;;;;;12.28;45.27;100395.72;4967756;28;19948;-73
2023/05/11 03:53:04;;;;;;;;;;;;;;;12.29;45.03;100400.13;4980761;28;20323;-73
2023/05/11 03:55:31;;;;;;;;;;;;;;;12.31;44.87;100408.91;4987378;28;20016;-73
2023/05/11 03:57:56;;;;;;;;;;;;;;;12.38;44.73;100403.16;4985187;28;19925;-73
2023/05/11 04:00:23;;;;;;;;;;;;;;;12.47;44.38;100409.75;4984539;28;19984;-73
2023/05/11 04:02:49;;;;;;;;;;;;;;;12.50;44.11;100402.06;4983505;28;19926;-74
2023/05/11 04:05:18;;;;;;;;;;;;;;;12.50;44.04;100404.81;4983462;28;20061;-73
2023/05/11 04:07:45;;;;;;;;;;;;;;;12.56;43.67;100401.81;4981975;28;20333;-73
2023/05/11 04:10:11;;;;;;;;;;;;;;;12.64;43.50;100400.44;4981507;28;19926;-73
2023/05/11 04:12:37;;;;;;;;;;;;;;;12.72;43.17;100405.38;4984974;28;19925;-73
2023/05/11 04:15:04;;;;;;;;;;;;;;;12.78;43.09;100408.94;4985282;28;19960;-73
2023/05/11 04:17:29;;;;;;;;;;;;;;;12.83;43.13;100411.69;4986194;28;19974;-73
2023/05/11 04:19:55;;;;;;;;;;;;;;;12.88;43.00;100419.09;4986642;28;19926;-74
2023/05/11 04:22:24;;;;;;;;;;;;;;;12.87;42.90;100415.53;4986057;28;19963;-74
2023/05/11 04:24:50;;;;;;;;;;;;;;;12.90;42.85;100423.19;4983037;28;19972;-74
2023/05/11 04:27:15;;;;;;;;;;;;;;;12.97;43.01;100422.13;4987454;28;19934;-73
2023/05/11 04:29:41;;;;;;;;;;;;;;;13.00;42.80;100416.88;4987194;28;20028;-73
2023/05/11 04:32:07;;;;;;;;;;;;;;;13.07;42.67;100416.59;4986808;28;19925;-73
2023/05/11 04:34:34;;;;;;;;;;;;;;;13.17;42.48;100418.50;4965137;28;19932;-73
2023/05/11 04:37:06;;;;;;;;;;;;;;;13.26;42.36;100425.09;4703556;28;10000120;-73
2023/05/11 04:39:34;;;;;;;;;;;;;;;13.29;42.10;100426.47;4983058;28;19933;-73
2023/05/11 04:42:01;;;;;;;;;;;;;;;13.32;42.08;100423.16;4633259;28;10000245;-73
2023/05/11 04:44:27;;;;;;;;;;;;;;;13.30;41.83;100417.13;4983332;28;19929;-72
2023/05/11 04:46:54;;;;;;;;;;;;;;;13.37;41.95;100425.88;4979989;28;19930;-74
2023/05/11 04:49:20;;;;;;;;;;;;;;;13.37;42.09;100425.88;4960456;28;19926;-74
2023/05/11 04:51:46;;;;;;;;;;;;;;;13.42;41.98;100423.09;4966081;28;19933;-76
2023/05/11 04:54:13;;;;;;;;;;;;;;;13.55;41.60;100424.50;4993840;28;20187;-74
2023/05/11 04:56:41;;;;;;;;;;;;;;;13.85;41.13;100417.25;4983167;28;20409;-74
2023/05/11 04:59:07;;;;;;;;;;;;;;;14.24;40.60;100423.06;4983086;28;19925;-74
2023/05/11 05:01:33;;;;;;;;;;;;;;;14.52;39.99;100421.53;4985968;28;19937;-75
2023/05/11 05:03:59;;;;;;;;;;;;;;;14.53;39.88;100427.84;4980537;28;19976;-75
2023/05/11 05:06:25;;;;;;;;;;;;;;;14.47;39.95;100427.06;4980157;28;20007;-74
2023/05/11 05:08:51;;;;;;;;;;;;;;;14.40;39.99;100421.06;4982956;28;19957;-75
2023/05/11 05:11:17;;;;;;;;;;;;;;;14.31;40.10;100418.91;4984862;28;19925;-74
2023/05/11 05:13:45;;;;;;;;;;;;;;;14.27;40.30;100414.25;4986571;28;20401;-75
2023/05/11 05:16:11;;;;;;;;;;;;;;;14.30;40.23;100414.50;4999694;28;20053;-74
2023/05/11 05:18:36;;;;;;;;;;;;;;;14.40;39.98;100412.81;4965969;28;20189;-75
2023/05/11 05:21:03;;;;;;;;;;;;;;;14.52;39.79;100418.78;4985086;28;19925;-74
2023/05/11 05:23:30;;;;;;;;;;;;;;;14.65;39.60;100421.97;4965797;28;19967;-74
2023/05/11 05:25:56;;;;;;;;;;;;;;;14.70;39.54;100406.25;4965820;28;19947;-74
2023/05/11 05:28:22;;;;;;;;;;;;;;;14.73;39.24;100411.19;4965972;28;20393;-74
2023/05/11 05:30:49;;;;;;;;;;;;;;;14.77;39.11;100410.66;4960694;28;19926;-75
2023/05/11 05:33:15;;;;;;;;;;;;;;;14.86;39.33;100406.16;4964667;28;19925;-74
2023/05/11 05:35:42;;;;;;;;;;;;;;;14.98;38.90;100403.00;4974057;28;19933;-74
2023/05/11 05:38:10;;;;;;;;;;;;;;;15.11;38.82;100415.28;4938413;28;19926;-74
2023/05/11 05:40:38;;;;;;;;;;;;;;;15.23;38.82;100414.88;4970156;28;19957;-74
2023/05/11 05:43:04;;;;;;;;;;;;;;;15.41;38.32;100414.13;4975530;28;19926;-74
2023/05/11 05:45:30;;;;;;;;;;;;;;;15.57;37.79;100411.22;4966292;28;19932;-75
2023/05/11 05:48:01;;;;;;;;;;;;;;;15.63;37.65;100410.03;4967427;28;20447;-74
2023/05/11 05:50:27;;;;;;;;;;;;;;;15.77;37.11;100415.66;4983064;28;20016;-73
2023/05/11 05:52:53;;;;;;;;;;;;;;;15.88;36.97;100417.19;4979613;28;20393;-74
2023/05/11 05:55:22;;;;;;;;;;;;;;;16.24;36.17;100407.63;4980353;28;19976;-74
2023/05/11 05:57:50;;;;;;;;;;;;;;;16.67;35.35;100406.69;4983865;28;19925;-75
2023/05/11 06:00:16;;;;;;;;;;;;;;;16.98;34.71;100394.28;4981897;28;19930;-75
2023/05/11 06:02:42;;;;;;;;;;;;;;;16.95;34.58;100401.25;4984471;28;20140;-74
2023/05/11 06:05:17;;;;;;;;;;;;;;;16.70;34.70;100400.56;4983953;28;20024;-74
2023/05/11 06:07:43;;;;;;;;;;;;;;;16.40;35.20;100407.41;4985072;28;19925;-74
2023/05/11 06:10:09;;;;;;;;;;;;;;;16.14;35.61;100407.75;4984690;28;20451;-74
2023/05/11 06:12:35;;;;;;;;;;;;;;;16.17;35.26;100418.19;4967814;28;20392;-74
2023/05/11 06:15:02;;;;;;;;;;;;;;;16.22;34.74;100409.84;4970038;28;19933;-75
2023/05/11 06:17:31;;;;;;;;;;;;;;;16.38;34.71;100415.97;4968916;28;20164;-74
2023/05/11 06:19:57;;;;;;;;;;;;;;;16.52;34.19;100423.50;4976346;28;19979;-75
2023/05/11 06:22:27;;;;;;;;;;;;;;;16.70;33.95;100421.81;4982515;28;20407;-75
2023/05/11 06:24:54;;;;;;;;;;;;;;;16.87;33.87;100426.78;4985947;28;19932;-75
2023/05/11 06:27:20;;;;;;;;;;;;;;;16.94;34.09;100418.94;4982723;28;19949;-75
2023/05/11 06:29:47;;;;;;;;;;;;;;;17.09;34.02;100420.63;4965958;28;19932;-75
2023/05/11 06:32:14;;;;;;;;;;;;;;;17.26;33.75;100420.06;4985076;28;19936;-74
2023/05/11 06:34:41;;;;;;;;;;;;;;;17.68;33.16;100424.78;4980985;28;19929;-74
2023/05/11 06:37:08;;;;;;;;;;;;;;;17.97;32.80;100424.47;4955556;23;1263293;-74
2023/05/11 06:39:36;;;;;;;;;;;;;;;18.22;32.24;100425.03;4977180;28;20020;-74
2023/05/11 06:42:06;;;;;;;;;;;;;;;18.36;31.70;100424.19;4970276;28;20274;-74
2023/05/11 06:44:33;;;;;;;;;;;;;;;18.31;31.69;100418.78;4965490;28;19933;-74
2023/05/11 06:46:59;;;;;;;;;;;;;;;18.24;31.32;100420.00;4941038;28;19929;-74
2023/05/11 06:49:26;;;;;;;;;;;;;;;18.09;31.33;100423.13;4962017;28;19937;-74
2023/05/11 06:51:51;;;;;;;;;;;;;;;17.92;31.75;100429.28;4963467;28;19930;-74
2023/05/11 06:54:19;;;;;;;;;;;;;;;17.77;31.67;100428.47;4982242;28;19926;-74
2023/05/11 06:56:47;;;;;;;;;;;;;;;17.71;31.00;100433.28;4965795;28;19969;-74
2023/05/11 06:59:13;;;;;;;;;;;;;;;17.62;30.99;100426.00;4962422;28;20312;-74
2023/05/11 07:01:39;;;;;;;;;;;;;;;17.62;31.00;100424.06;4980268;28;19926;-74
2023/05/11 07:04:05;;;;;;;;;;;;;;;17.75;31.15;100414.13;4987485;28;19926;-74
2023/05/11 07:06:32;;;;;;;;;;;;;;;17.80;30.79;100415.97;4986455;28;20556;-74
2023/05/11 07:08:58;;;;;;;;;;;;;;;17.95;30.57;100425.88;4980184;28;20140;-74
2023/05/11 07:11:24;;;;;;;;;;;;;;;18.27;30.50;100424.09;4963457;28;19953;-74
2023/05/11 07:13:51;;;;;;;;;;;;;;;18.64;29.57;100421.31;4965267;28;19933;-75
2023/05/11 07:16:18;;;;;;;;;;;;;;;18.95;29.20;100418.56;4943235;28;20038;-74
2023/05/11 07:18:44;;;;;;;;;;;;;;;19.36;28.83;100421.44;4965254;28;20440;-74
2023/05/11 07:21:10;;;;;;;;;;;;;;;19.77;28.31;100423.06;4966464;28;21352;-75
2023/05/11 07:23:36;;;;;;;;;;;;;;;20.24;27.42;100419.72;4961586;28;19925;-75
2023/05/11 07:26:07;;;;;;;;;;;;;;;20.53;27.07;100421.06;4960685;28;20424;-75
2023/05/11 07:28:33;;;;;;;;;;;;;;;20.46;26.98;100422.69;4954644;28;19927;-75
2023/05/11 07:31:00;;;;;;;;;;;;;;;20.33;27.00;100418.94;4953950;28;19926;-75
2023/05/11 07:33:27;;;;;;;;;;;;;;;20.15;27.00;100413.38;4971004;28;19926;-75
2023/05/11 07:35:52;;;;;;;;;;;;;;;20.30;26.38;100417.63;4970215;28;19930;-75
2023/05/11 07:38:18;;;;;;;;;;;;;;;20.61;26.29;100418.59;4953526;28;20516;-75
2023/05/11 07:40:44;;;;;;;;;;;;;;;20.98;26.10;100413.50;4966060;28;19930;-75
2023/05/11 07:43:10;;;;;;;;;;;;;;;21.22;25.79;100415.72;4968164;28;19929;-75
2023/05/11 07:45:36;;;;;;;;;;;;;;;21.29;25.61;100409.66;4968038;28;19925;-75
2023/05/11 07:48:03;;;;;;;;;;;;;;;21.32;25.40;100411.75;4966915;28;19976;-75
2023/05/11 07:50:30;;;;;;;;;;;;;;;21.38;25.21;100409.63;4936545;28;19934;-75
2023/05/11 07:52:56;;;;;;;;;;;;;;;21.49;25.18;100401.72;4969689;28;20025;-75
2023/05/11 07:55:23;;;;;;;;;;;;;;;21.67;25.28;100405.25;4968328;28;20001;-74
2023/05/11 07:57:50;;;;;;;;;;;;;;;21.59;25.48;100397.72;4969151;28;19969;-74
2023/05/11 08:00:15;;;;;;;;;;;;;;;21.45;25.27;100396.00;4965183;28;19930;-74
2023/05/11 08:02:42;;;;;;;;;;;;;;;21.53;25.13;100394.31;4971664;28;19933;-74
2023/05/11 08:05:09;;;;;;;;;;;;;;;21.45;25.48;100397.97;4970341;28;19961;-74
2023/05/11 08:07:35;;;;;;;;;;;;;;;21.01;25.97;100389.81;4966630;28;20385;-74
2023/05/11 08:10:01;;;;;;;;;;;;;;;20.91;25.79;100397.34;4964872;28;19926;-74
2023/05/11 08:12:27;;;;;;;;;;;;;;;21.26;25.38;100401.97;4966031;28;19926;-74
2023/05/11 08:14:54;;;;;;;;;;;;;;;21.93;25.07;100398.69;4970518;28;19992;-74
2023/05/11 08:17:20;;;;;;;;;;;;;;;22.45;24.40;100393.91;4968325;28;20064;-74
2023/05/11 08:19:46;;;;;;;;;;;;;;;22.11;24.91;100388.25;4950782;28;19926;-74
2023/05/11 08:22:14;;;;;;;;;;;;;;;22.47;24.43;100389.63;4967708;28;19941;-75
2023/05/11 08:24:40;;;;;;;;;;;;;;;22.72;24.19;100391.72;4966021;28;19957;-75
2023/05/11 08:27:06;;;;;;;;;;;;;;;22.62;24.32;100390.97;4965633;28;19948;-75
2023/05/11 08:29:32;;;;;;;;;;;;;;;21.65;24.96;100388.88;4968084;28;20393;-75
2023/05/11 08:31:58;;;;;;;;;;;;;;;20.60;25.90;100401.13;4968697;28;20356;-75
2023/05/11 08:34:23;;;;;;;;;;;;;;;20.00;26.93;100391.66;4967964;28;19934;-75
2023/05/11 08:36:49;;;;;;;;;;;;;;;19.55;27.55;100397.03;4966096;28;19929;-75
2023/05/11 08:39:17;;;;;;;;;;;;;;;19.12;27.89;100398.50;4966025;28;20394;-75
2023/05/11 08:41:43;;;;;;;;;;;;;;;18.77;28.08;100389.97;4969915;28;19948;-74
2023/05/11 08:44:09;;;;;;;;;;;;;;;18.59;28.44;100391.00;4970362;28;20419;-75
2023/05/11 08:46:39;;;;;;;;;;;;;;;18.51;28.58;100390.59;4971802;28;19930;-75
2023/05/11 08:49:06;;;;;;;;;;;;;;;18.51;28.95;100387.81;4965491;28;19968;-75
2023/05/11 08:51:32;;;;;;;;;;;;;;;18.48;28.69;100387.63;4966968;28;19926;-74
2023/05/11 08:53:58;;;;;;;;;;;;;;;18.42;28.57;100382.22;4950908;28;19957;-75
2023/05/11 08:56:28;;;;;;;;;;;;;;;18.47;28.66;100380.47;4970634;28;19957;-75
2023/05/11 08:58:55;;;;;;;;;;;;;;;18.63;28.71;100373.41;4965734;28;20402;-75
2023/05/11 09:01:22;;;;;;;;;;;;;;;19.19;27.90;100381.41;4968914;28;19965;-75
2023/05/11 09:03:48;;;;;;;;;;;;;;;20.18;27.08;100373.84;4965983;28;20441;-74
2023/05/11 09:06:22;;;;;;;;;;;;;;;21.02;26.22;100367.22;4971947;28;19930;-74
2023/05/11 09:08:49;;;;;;;;;;;;;;;21.07;26.09;100367.06;4970197;28;19961;-74
2023/05/11 09:11:18;;;;;;;;;;;;;;;21.25;25.89;100361.41;4967083;28;19961;-75
2023/05/11 09:13:45;;;;;;;;;;;;;;;22.42;24.56;100353.59;4949257;28;19926;-75
2023/05/11 09:16:11;;;;;;;;;;;;;;;23.83;22.98;100351.94;4967648;28;20316;-75
2023/05/11 09:18:45;;;;;;;;;;;;;;;25.08;21.59;100352.25;4968272;28;19930;-74
2023/05/11 09:21:11;;;;;;;;;;;;;;;26.22;19.86;100348.06;4968611;28;19933;-74
2023/05/11 09:23:37;;;;;;;;;;;;;;;26.41;19.86;100348.09;4968337;28;19926;-75
2023/05/11 09:26:03;;;;;;;;;;;;;;;26.39;19.76;100338.41;4966578;28;19926;-75
2023/05/11 09:28:29;;;;;;;;;;;;;;;25.86;20.25;100336.91;4968573;28;19932;-75
2023/05/11 09:30:56;;;;;;;;;;;;;;;24.72;21.56;100340.91;4969125;28;19973;-75
2023/05/11 09:33:23;;;;;;;;;;;;;;;23.59;22.63;100350.00;4966006;28;19929;-75
2023/05/11 09:35:49;;;;;;;;;;;;;;;22.83;23.51;100341.91;4967939;28;19937;-75
2023/05/11 09:38:19;;;;;;;;;;;;;;;22.44;23.94;100342.94;4967221;28;19933;-74
2023/05/11 09:40:51;;;;;;;;;;;;;;;22.88;23.83;100333.31;4965537;28;20029;-74
2023/05/11 09:43:18;;;;;;;;;;;;;;;24.04;22.83;100332.25;4966549;28;19930;-75
2023/05/11 09:45:45;;;;;;;;;;;;;;;25.51;21.22;100318.94;4968730;28;19926;-74
2023/05/11 09:48:24;;;;;;;;;;;;;;;25.44;21.12;100305.56;4963996;28;19926;-74
2023/05/11 09:50:50;;;;;;;;;;;;;;;25.12;21.29;100311.19;4965026;28;19926;-75
2023/05/11 09:53:16;;;;;;;;;;;;;;;26.73;19.74;100310.59;4966732;28;20000;-74
2023/05/11 09:55:49;;;;;;;;;;;;;;;26.43;19.83;100309.28;4963082;28;19925;-74
2023/05/11 09:58:15;;;;;;;;;;;;;;;24.78;21.59;100317.13;4967384;28;20032;-74
2023/05/11 10:00:49;;;;;;;;;;;;;;;23.23;22.89;100319.78;4968411;28;20032;-74
2023/05/11 10:03:17;;;;;;;;;;;;;;;22.13;24.16;100324.69;4964224;28;19926;-74
2023/05/11 10:05:55;;;;;;;;;;;;;;;21.12;25.97;100349.34;4964130;28;20021;-75
2023/05/11 10:08:26;;;;;;;;;;;;;;;20.21;27.50;100334.34;4968089;28;19926;-74
2023/05/11 10:10:53;;;;;;;;;;;;;;;19.20;29.99;100322.06;4964245;28;20409;-74
2023/05/11 10:13:20;;;;;;;;;;;;;;;18.22;33.18;100335.69;4946818;28;19937;-74
2023/05/11 10:15:50;;;;;;;;;;;;;;;17.52;35.25;100341.34;4967764;28;19926;-74
2023/05/11 10:18:18;;;;;;;;;;;;;;;17.03;34.84;100335.41;4961280;28;20349;-74
2023/05/11 10:20:44;;;;;;;;;;;;;;;16.72;36.29;100326.53;4967572;28;19926;-74
2023/05/11 10:23:12;;;;;;;;;;;;;;;16.39;37.31;100342.25;4962922;28;20325;-73
2023/05/11 10:25:38;;;;;;;;;;;;;;;16.22;38.27;100338.09;4965624;28;19988;-75
2023/05/11 10:28:05;;;;;;;;;;;;;;;16.07;38.37;100347.44;4948564;28;20036;-75
2023/05/11 10:30:32;;;;;;;;;;;;;;;15.99;38.93;100351.69;4950657;28;20398;-75
2023/05/11 10:32:59;;;;;;;;;;;;;;;16.12;38.03;100354.84;4967496;28;19926;-74
2023/05/11 10:35:27;;;;;;;;;;;;;;;16.47;37.36;100354.56;4967234;28;19932;-74
2023/05/11 10:37:53;;;;;;;;;;;;;;;16.81;37.48;100375.53;4963545;28;20295;-74
2023/05/11 10:40:19;;;;;;;;;;;;;;;16.99;37.67;100351.75;4966307;28;20316;-74
2023/05/11 10:43:00;;;;;;;;;;;;;;;16.95;35.96;100339.66;4970018;28;19926;-74
2023/05/11 10:45:28;;;;;;;;;;;;;;;17.03;33.84;100340.91;4968184;28;19930;-74
2023/05/11 10:48:06;;;;;;;;;;;;;;;17.01;33.25;100335.69;4969911;28;19926;-74
2023/05/11 10:50:42;;;;;;;;;;;;;;;16.96;33.47;100333.00;4964916;28;19932;-74
2023/05/11 10:53:17;;;;;;;;;;;;;;;16.87;32.75;100333.72;4962477;28;19930;-74
2023/05/11 10:55:49;;;;;;;;;;;;;;;16.91;33.17;100333.09;4965434;28;19933;-74
2023/05/11 10:58:22;;;;;;;;;;;;;;;17.14;32.91;100340.41;4981997;28;19972;-74
2023/05/11 11:01:05;;;;;;;;;;;;;;;19.60;29.92;100332.31;4963545;28;19932;-74
2023/05/11 11:03:31;;;;;;;;;;;;;;;22.64;26.20;100334.91;4968565;28;19926;-75
2023/05/11 11:05:58;;;;;;;;;;;;;;;24.08;23.73;100332.38;4960911;28;19925;-75
2023/05/11 11:08:24;;;;;;;;;;;;;;;23.85;23.97;100340.44;4964670;28;19932;-75
2023/05/11 11:10:50;;;;;;;;;;;;;;;24.11;23.63;100348.41;4951331;28;19988;-75
2023/05/11 11:13:18;;;;;;;;;;;;;;;23.25;24.19;100349.28;4964582;28;20389;-74
2023/05/11 11:15:59;;;;;;;;;;;;;;;22.23;25.31;100356.88;4964177;28;20385;-75
2023/05/11 11:18:26;;;;;;;;;;;;;;;21.56;27.21;100354.72;4951186;28;20491;-75
2023/05/11 11:20:52;;;;;;;;;;;;;;;23.25;25.35;100364.03;4965651;28;19926;-75
2023/05/11 11:23:36;;;;;;;;;;;;;;;22.89;25.55;100373.97;4966115;28;19926;-74
2023/05/11 11:26:04;;;;;;;;;;;;;;;21.09;28.11;100383.38;4965277;28;19922;-75
2023/05/11 11:28:45;;;;;;;;;;;;;;;19.99;29.74;100388.03;4963832;28;19937;-75
2023/05/11 11:31:26;;;;;;;;;;;;;;;19.17;31.21;100383.69;4948746;28;19926;-75
2023/05/11 11:33:59;;;;;;;;;;;;;;;18.59;31.87;100374.38;4963432;28;20337;-75
2023/05/11 11:36:44;;;;;;;;;;;;;;;18.11;32.67;100379.38;4965545;28;20525;-75
2023/05/11 11:39:10;;;;;;;;;;;;;;;17.68;33.74;100375.00;4967145;28;19922;-75
2023/05/11 11:41:38;;;;;;;;;;;;;;;17.32;34.81;100367.44;4965408;28;19926;-75
2023/05/11 11:44:04;;;;;;;;;;;;;;;16.96;36.84;100372.50;4963228;28;19933;-75
2023/05/11 11:46:30;;;;;;;;;;;;;;;16.53;39.34;100365.22;4964173;28;19933;-74
2023/05/11 11:49:07;;;;;;;;;;;;;;;16.17;40.59;100365.78;4966254;28;19926;-74
2023/05/11 11:51:34;;;;;;;;;;;;;;;15.95;41.09;100352.59;4964024;28;20424;-75
2023/05/11 11:54:01;;;;;;;;;;;;;;;15.86;41.37;100344.97;4963457;28;19925;-75
2023/05/11 11:56:42;;;;;;;;;;;;;;;15.89;40.86;100343.56;4967230;28;20401;-74
2023/05/11 11:59:12;;;;;;;;;;;;;;;15.94;40.88;100326.97;4967449;28;19947;-74
2023/05/11 12:01:38;;;;;;;;;;;;;;;16.05;41.24;100335.06;4967287;28;19933;-74
2023/05/11 12:04:22;;;;;;;;;;;;;;;16.08;41.13;100343.56;4975568;28;19925;-74
2023/05/11 12:06:50;;;;;;;;;;;;;;;16.11;41.79;100334.69;4950245;28;20049;-74
2023/05/11 12:09:18;;;;;;;;;;;;;;;16.11;41.68;100331.13;4965971;28;20447;-75
2023/05/11 12:11:46;;;;;;;;;;;;;;;16.16;41.83;100318.09;4975614;28;19944;-74
2023/05/11 12:14:12;;;;;;;;;;;;;;;16.44;41.70;100333.91;4969464;28;19926;-75
2023/05/11 12:16:38;;;;;;;;;;;;;;;18.02;39.57;100329.47;4965934;28;19926;-75
2023/05/11 12:19:03;;;;;;;;;;;;;;;20.76;35.61;100334.75;4968900;28;20466;-74
2023/05/11 12:21:33;;;;;;;;;;;;;;;22.64;32.63;100319.00;4967000;28;20029;-75
2023/05/11 12:23:59;;;;;;;;;;;;;;;22.67;31.95;100328.66;4967113;28;20037;-75
2023/05/11 12:26:26;;;;;;;;;;;;;;;23.90;30.45;100324.25;4969239;28;19930;-75
2023/05/11 12:29:07;;;;;;;;;;;;;;;24.84;28.83;100325.28;4983686;28;20032;-75
2023/05/11 12:31:34;;;;;;;;;;;;;;;26.69;25.57;100320.94;4967081;28;20585;-75
2023/05/11 12:34:00;;;;;;;;;;;;;;;27.47;24.40;100322.66;4967894;28;19926;-75
2023/05/11 12:36:25;;;;;;;;;;;;;;;28.10;23.47;100317.53;4962847;28;19937;-75
2023/05/11 12:38:51;;;;;;;;;;;;;;;26.99;24.16;100323.91;4949562;28;19925;-75